Time;durP1;ratioP1;P1;durP2;ratioP2;P2;SDS_P1;SDS_P2;PMS_P1;PMS_P2;Temp;Humidity;BMP_temperature;BMP_pressure;BME280_temperature;BME280_humidity;BME280_pressure;Samples;Min_cycle;Max_cycle;Signal;HPM_P1;HPM_P2
2023/06/05 00:02:00;;;;;;;8.90;4.70;;;10.50;99.90;;;;;;5045624;28;20053;-62
2023/06/05 00:04:27;;;;;;;6.13;4.25;;;10.40;99.90;;;;;;5067563;28;20044;-62
2023/06/05 00:06:53;;;;;;;6.40;4.38;;;10.40;99.90;;;;;;5071773;28;20063;-64
2023/06/05 00:09:19;;;;;;;9.23;4.68;;;10.40;99.90;;;;;;5072975;28;20480;-63
2023/06/05 00:11:45;;;;;;;8.82;5.05;;;10.30;99.90;;;;;;5068861;28;20040;-63
2023/06/05 00:14:11;;;;;;;7.65;4.80;;;10.30;99.90;;;;;;5069602;28;20088;-64
2023/06/05 00:16:36;;;;;;;6.45;5.20;;;10.30;99.90;;;;;;5069209;28;20037;-63
2023/06/05 00:19:02;;;;;;;6.70;4.68;;;10.20;99.90;;;;;;5072783;28;20052;-61
2023/06/05 00:21:28;;;;;;;7.22;4.95;;;10.20;99.90;;;;;;5070678;28;20036;-61
2023/06/05 00:23:54;;;;;;;8.13;5.18;;;10.20;99.90;;;;;;5071015;28;20040;-63
2023/06/05 00:26:20;;;;;;;5.82;4.82;;;10.10;99.90;;;;;;5069038;28;20051;-63
2023/06/05 00:28:46;;;;;;;7.47;4.97;;;10.10;99.90;;;;;;5070342;28;20837;-62
2023/06/05 00:31:17;;;;;;;7.20;4.95;;;10.00;99.90;;;;;;5072088;28;20036;-63
2023/06/05 00:33:42;;;;;;;6.88;5.05;;;10.00;99.90;;;;;;5069545;28;20043;-63
2023/06/05 00:36:08;;;;;;;6.68;5.25;;;10.00;99.90;;;;;;5071183;28;20115;-63
2023/06/05 00:38:34;;;;;;;9.18;5.13;;;9.90;99.90;;;;;;5069565;28;20102;-63
2023/06/05 00:41:01;;;;;;;6.93;4.60;;;9.80;99.90;;;;;;5066347;28;20044;-61
2023/06/05 00:43:26;;;;;;;7.53;4.95;;;9.80;99.90;;;;;;5068923;28;20687;-62
2023/06/05 00:46:02;;;;;;;8.73;5.00;;;9.80;99.90;;;;;;5068620;28;20040;-61
2023/06/05 00:48:29;;;;;;;8.95;5.22;;;9.70;99.90;;;;;;5053729;28;20101;-63
2023/06/05 00:50:56;;;;;;;7.13;5.13;;;9.70;99.90;;;;;;5050449;28;20419;-62
2023/06/05 00:53:23;;;;;;;7.10;4.90;;;9.60;99.90;;;;;;5070030;28;20052;-61
2023/06/05 00:55:49;;;;;;;5.50;4.57;;;9.60;99.90;;;;;;5069523;28;20048;-63
2023/06/05 00:58:15;;;;;;;5.95;4.80;;;9.60;99.90;;;;;;5068706;28;20060;-63
2023/06/05 01:00:41;;;;;;;7.90;4.75;;;9.60;99.90;;;;;;5066798;28;20040;-63
2023/06/05 01:03:08;;;;;;;8.75;5.18;;;9.60;99.90;;;;;;5068290;28;20072;-63
2023/06/05 01:05:36;;;;;;;6.95;5.18;;;9.60;99.90;;;;;;5068260;28;20090;-62
2023/06/05 01:08:03;;;;;;;7.82;5.50;;;9.50;99.90;;;;;;5068641;28;20487;-62
2023/06/05 01:10:30;;;;;;;7.28;5.10;;;9.50;99.90;;;;;;5067187;28;20040;-62
2023/06/05 01:13:24;;;;;;;6.80;5.28;;;9.50;99.90;;;;;;5066077;28;20047;-63
2023/06/05 01:15:53;;;;;;;8.52;5.60;;;9.50;99.90;;;;;;5069670;28;20094;-62
2023/06/05 01:18:19;;;;;;;7.75;5.28;;;9.40;99.90;;;;;;5066729;28;20055;-61
2023/06/05 01:20:44;;;;;;;6.70;4.97;;;9.40;99.90;;;;;;5065774;28;20044;-63
2023/06/05 01:23:10;;;;;;;5.80;5.15;;;9.40;99.90;;;;;;5070930;28;20044;-61
2023/06/05 01:25:36;;;;;;;5.53;4.80;;;9.40;99.90;;;;;;5068800;28;20032;-62
2023/06/05 01:28:08;;;;;;;7.10;5.18;;;9.30;99.90;;;;;;5071098;28;20041;-62
2023/06/05 01:30:46;;;;;;;6.22;5.18;;;9.30;99.90;;;;;;5065587;28;20124;-63
2023/06/05 01:33:25;;;;;;;8.50;5.28;;;9.20;99.90;;;;;;5069274;28;20091;-63
2023/06/05 01:35:53;;;;;;;7.53;5.30;;;9.20;99.90;;;;;;5071258;28;20119;-61
2023/06/05 01:38:20;;;;;;;7.05;5.60;;;9.10;99.90;;;;;;5050203;28;20052;-61
2023/06/05 01:40:47;;;;;;;7.47;5.75;;;9.10;99.90;;;;;;5065969;28;20032;-61
2023/06/05 01:43:13;;;;;;;6.53;5.28;;;9.10;99.90;;;;;;5071724;28;20043;-62
2023/06/05 01:45:42;;;;;;;6.68;5.00;;;9.00;99.90;;;;;;5071510;28;20395;-62
2023/06/05 01:48:10;;;;;;;7.38;5.45;;;9.00;99.90;;;;;;5068939;28;20040;-63
2023/06/05 01:50:37;;;;;;;7.18;5.68;;;9.00;99.90;;;;;;5064376;28;20430;-61
2023/06/05 01:53:07;;;;;;;6.13;5.45;;;9.00;99.90;;;;;;5069883;28;20051;-61
2023/06/05 01:55:33;;;;;;;5.95;5.07;;;8.90;99.90;;;;;;5069574;28;20451;-62
2023/06/05 01:57:59;;;;;;;7.30;5.70;;;8.90;99.90;;;;;;5070043;28;20131;-63
2023/06/05 02:00:25;;;;;;;8.80;6.10;;;8.90;99.90;;;;;;5068737;28;20135;-61
2023/06/05 02:02:51;;;;;;;7.80;6.05;;;8.90;99.90;;;;;;5067329;28;20153;-62
2023/06/05 02:05:19;;;;;;;8.95;5.85;;;8.90;99.90;;;;;;5068381;28;20044;-61
2023/06/05 02:07:53;;;;;;;7.97;6.00;;;8.80;99.90;;;;;;5067579;28;20036;-61
2023/06/05 02:10:19;;;;;;;8.23;5.85;;;8.80;99.90;;;;;;5063913;28;20119;-62
2023/06/05 02:12:46;;;;;;;6.35;5.60;;;8.80;99.90;;;;;;5068441;28;20039;-62
2023/06/05 02:15:13;;;;;;;6.85;5.65;;;8.80;99.90;;;;;;5062815;28;20594;-61
2023/06/05 02:17:44;;;;;;;10.45;5.82;;;8.80;99.90;;;;;;5069205;28;20036;-62
2023/06/05 02:20:15;;;;;;;8.00;5.70;;;8.70;99.90;;;;;;5068035;28;20048;-61
2023/06/05 02:22:41;;;;;;;8.27;6.05;;;8.70;99.90;;;;;;5070125;28;20556;-61
2023/06/05 02:25:07;;;;;;;6.72;5.40;;;8.70;99.90;;;;;;5067605;28;20128;-64
2023/06/05 02:27:33;;;;;;;8.05;5.85;;;8.70;99.90;;;;;;5067762;28;20442;-62
2023/06/05 02:29:59;;;;;;;7.60;5.95;;;8.60;99.90;;;;;;5067061;28;20041;-62
2023/06/05 02:32:26;;;;;;;8.43;5.78;;;8.60;99.90;;;;;;5070879;28;20387;-63
2023/06/05 02:34:52;;;;;;;9.75;6.03;;;8.60;99.90;;;;;;5068671;28;20123;-61
2023/06/05 02:37:18;;;;;;;7.65;5.75;;;8.50;99.90;;;;;;5067838;28;20128;-63
2023/06/05 02:39:45;;;;;;;7.72;5.93;;;8.50;99.90;;;;;;5068971;28;20049;-62
2023/06/05 02:42:12;;;;;;;7.63;5.53;;;8.40;99.90;;;;;;5064154;28;20044;-61
2023/06/05 02:44:38;;;;;;;9.38;6.18;;;8.40;99.90;;;;;;5065798;28;20036;-61
2023/06/05 02:47:03;;;;;;;8.63;6.10;;;8.40;99.90;;;;;;5086296;28;20364;-60
2023/06/05 02:49:29;;;;;;;8.65;5.55;;;8.40;99.90;;;;;;5070190;28;20041;-62
2023/06/05 02:51:59;;;;;;;7.75;6.07;;;8.40;99.90;;;;;;5062488;28;20079;-61
2023/06/05 02:54:28;;;;;;;6.60;5.75;;;8.30;99.90;;;;;;5066557;28;20095;-61
2023/06/05 02:56:56;;;;;;;6.78;5.40;;;8.30;99.90;;;;;;5066554;28;20132;-63
2023/06/05 02:59:24;;;;;;;7.47;6.13;;;8.30;99.90;;;;;;5067789;28;20078;-62
2023/06/05 03:01:51;;;;;;;7.18;6.40;;;8.30;99.90;;;;;;5068036;28;20052;-60
2023/06/05 03:04:21;;;;;;;9.05;5.95;;;8.30;99.90;;;;;;5048233;28;20483;-60
2023/06/05 03:06:53;;;;;;;7.65;6.07;;;8.20;99.90;;;;;;5067311;28;20037;-61
2023/06/05 03:09:19;;;;;;;6.85;5.60;;;8.20;99.90;;;;;;5066740;28;20360;-61
2023/06/05 03:11:44;;;;;;;7.63;6.05;;;8.20;99.90;;;;;;5063079;28;20048;-62
2023/06/05 03:14:10;;;;;;;7.50;6.25;;;8.20;99.90;;;;;;5067809;28;20457;-61
2023/06/05 03:16:43;;;;;;;7.63;6.40;;;8.10;99.90;;;;;;5066843;28;20046;-63
2023/06/05 03:19:09;;;;;;;7.80;6.50;;;8.20;99.90;;;;;;5068717;28;20072;-61
2023/06/05 03:21:39;;;;;;;7.05;6.25;;;8.20;99.90;;;;;;5064635;28;20066;-63
2023/06/05 03:24:14;;;;;;;9.85;6.80;;;8.20;99.90;;;;;;5063139;28;20048;-60
2023/06/05 03:26:40;;;;;;;8.40;6.13;;;8.20;99.90;;;;;;5054862;28;20044;-61
2023/06/05 03:29:07;;;;;;;7.65;6.22;;;8.10;99.90;;;;;;5055808;28;20044;-63
2023/06/05 03:31:33;;;;;;;6.78;5.57;;;8.10;99.90;;;;;;5042295;28;20033;-62
2023/06/05 03:33:59;;;;;;;9.55;7.10;;;8.10;99.90;;;;;;5058187;28;20038;-62
2023/06/05 03:36:27;;;;;;;9.02;5.93;;;8.10;99.90;;;;;;5057647;28;20079;-63
2023/06/05 03:38:53;;;;;;;8.95;6.63;;;8.10;99.90;;;;;;5057529;28;20071;-62
2023/06/05 03:41:19;;;;;;;10.20;6.68;;;8.10;99.90;;;;;;5060820;28;20398;-59
2023/06/05 03:43:46;;;;;;;7.85;6.32;;;8.10;99.90;;;;;;5068987;28;20062;-60
2023/06/05 03:46:17;;;;;;;7.88;6.68;;;8.10;99.90;;;;;;5068589;28;20041;-61
2023/06/05 03:48:43;;;;;;;8.38;6.30;;;8.10;99.90;;;;;;5068640;28;20037;-60
2023/06/05 03:51:09;;;;;;;8.07;6.38;;;8.10;99.90;;;;;;5059776;28;20075;-62
2023/06/05 03:53:39;;;;;;;6.85;5.93;;;8.10;99.90;;;;;;5059277;28;20111;-62
2023/06/05 03:56:06;;;;;;;6.82;5.85;;;8.10;99.90;;;;;;5056145;28;20518;-60
2023/06/05 03:58:32;;;;;;;7.45;5.97;;;8.10;99.90;;;;;;5056844;28;20048;-63
2023/06/05 04:00:58;;;;;;;9.73;6.60;;;8.10;99.90;;;;;;5062682;28;20060;-61
2023/06/05 04:03:25;;;;;;;6.82;5.93;;;8.20;99.90;;;;;;5059665;28;20029;-63
2023/06/05 04:05:51;;;;;;;9.98;7.38;;;8.20;99.90;;;;;;5058463;28;20038;-62
2023/06/05 04:08:16;;;;;;;7.38;6.60;;;8.20;99.90;;;;;;5067763;28;20036;-61
2023/06/05 04:10:42;;;;;;;9.40;6.70;;;8.30;99.90;;;;;;5069807;28;20038;-62
2023/06/05 04:13:08;;;;;;;9.65;7.38;;;8.30;99.90;;;;;;5067161;28;20419;-64
2023/06/05 04:15:34;;;;;;;10.32;7.00;;;8.40;99.90;;;;;;5068606;28;20040;-63
2023/06/05 04:18:00;;;;;;;8.80;7.90;;;8.40;99.90;;;;;;5062000;28;20491;-65
2023/06/05 04:20:26;;;;;;;10.30;7.32;;;8.50;99.90;;;;;;5068829;28;20111;-63
2023/06/05 04:22:51;;;;;;;13.00;8.15;;;8.60;99.90;;;;;;5063885;28;20048;-62
2023/06/05 04:25:17;;;;;;;12.05;8.38;;;8.70;99.90;;;;;;5058320;28;20051;-62
2023/06/05 04:27:45;;;;;;;8.98;7.80;;;8.80;99.90;;;;;;5054169;28;20428;-62
2023/06/05 04:30:12;;;;;;;11.00;7.70;;;8.80;99.90;;;;;;5064581;28;20076;-62
2023/06/05 04:32:39;;;;;;;11.73;7.97;;;8.90;99.90;;;;;;5080206;28;20455;-63
2023/06/05 04:35:08;;;;;;;11.50;7.32;;;9.00;99.90;;;;;;5089345;28;20036;-63
2023/06/05 04:37:38;;;;;;;13.18;8.38;;;9.10;99.90;;;;;;5059613;28;20041;-64
2023/06/05 04:40:05;;;;;;;11.52;8.38;;;9.20;99.90;;;;;;5071270;28;20045;-62
2023/06/05 04:42:32;;;;;;;10.70;8.43;;;9.20;99.90;;;;;;5070506;28;20040;-62
2023/06/05 04:45:00;;;;;;;12.02;8.32;;;9.30;99.90;;;;;;5069980;28;20045;-64
2023/06/05 04:47:27;;;;;;;9.57;8.15;;;9.40;99.90;;;;;;5068779;28;20032;-63
2023/06/05 04:49:54;;;;;;;11.20;8.40;;;9.50;99.90;;;;;;5072384;28;20040;-62
2023/06/05 04:52:20;;;;;;;15.35;8.82;;;9.60;99.90;;;;;;5067801;28;20479;-62
2023/06/05 04:54:47;;;;;;;9.65;8.05;;;9.70;99.90;;;;;;5068141;28;20048;-62
2023/06/05 04:57:12;;;;;;;11.18;8.57;;;9.80;99.90;;;;;;5066949;28;20036;-65
2023/06/05 04:59:38;;;;;;;11.68;8.80;;;9.90;99.90;;;;;;5068737;28;20044;-63
2023/06/05 05:02:04;;;;;;;12.95;8.30;;;10.10;99.90;;;;;;5069461;28;20075;-63
2023/06/05 05:04:29;;;;;;;12.27;8.30;;;10.20;99.90;;;;;;5072233;28;20415;-62
2023/06/05 05:07:01;;;;;;;11.02;7.85;;;10.30;99.90;;;;;;5062850;28;20153;-61
2023/06/05 05:09:31;;;;;;;11.35;8.13;;;10.40;99.90;;;;;;5073163;28;20418;-63
2023/06/05 05:11:57;;;;;;;13.88;9.27;;;10.50;99.90;;;;;;5068277;28;20028;-62
2023/06/05 05:14:27;;;;;;;13.30;8.77;;;10.70;99.90;;;;;;5068377;28;20387;-65
2023/06/05 05:16:53;;;;;;;10.85;8.68;;;10.80;99.90;;;;;;5069210;28;20049;-61
2023/06/05 05:19:19;;;;;;;16.15;9.05;;;10.90;99.90;;;;;;5064910;28;20051;-61
2023/06/05 05:21:48;;;;;;;12.10;9.18;;;11.00;99.90;;;;;;5062747;28;20049;-62
2023/06/05 05:24:14;;;;;;;9.82;8.00;;;11.10;99.90;;;;;;5058337;28;20048;-63
2023/06/05 05:26:40;;;;;;;10.73;8.45;;;11.30;99.90;;;;;;5064546;28;20256;-61
2023/06/05 05:29:06;;;;;;;12.57;8.65;;;11.40;99.90;;;;;;5070953;28;20131;-60
2023/06/05 05:31:32;;;;;;;12.57;8.35;;;11.50;99.90;;;;;;5070445;28;20111;-61
2023/06/05 05:33:58;;;;;;;8.90;7.25;;;11.60;99.90;;;;;;5073126;28;20186;-63
2023/06/05 05:36:25;;;;;;;10.30;8.45;;;11.70;99.90;;;;;;5069285;28;20534;-63
2023/06/05 05:38:51;;;;;;;12.15;7.90;;;11.80;99.90;;;;;;5096630;28;20037;-62
2023/06/05 05:41:16;;;;;;;10.88;8.45;;;11.90;99.90;;;;;;5069648;28;20047;-61
2023/06/05 05:43:42;;;;;;;9.40;7.13;;;12.10;99.90;;;;;;5068087;28;20040;-62
2023/06/05 05:46:08;;;;;;;9.45;7.07;;;12.20;99.90;;;;;;5068612;28;20384;-64
2023/06/05 05:48:37;;;;;;;10.52;6.88;;;12.30;99.90;;;;;;5081510;28;20507;-63
2023/06/05 05:51:02;;;;;;;8.45;6.70;;;12.50;99.90;;;;;;5067688;28;20029;-63
2023/06/05 05:53:28;;;;;;;8.23;7.10;;;12.60;99.90;;;;;;5070268;28;20044;-62
2023/06/05 05:55:54;;;;;;;7.50;6.70;;;12.80;99.90;;;;;;5068381;28;20048;-61
2023/06/05 05:58:20;;;;;;;11.20;6.20;;;12.90;99.90;;;;;;5068551;28;20040;-60
2023/06/05 06:00:46;;;;;;;7.15;6.18;;;13.10;99.90;;;;;;5069471;28;20097;-61
2023/06/05 06:03:13;;;;;;;5.90;5.25;;;13.10;99.90;;;;;;5068998;28;20048;-63
2023/06/05 06:05:39;;;;;;;6.75;5.70;;;13.20;99.90;;;;;;5068734;28;20530;-61
2023/06/05 06:08:05;;;;;;;7.68;5.55;;;13.30;99.90;;;;;;5069631;28;20045;-62
2023/06/05 06:10:31;;;;;;;6.40;5.38;;;13.40;99.90;;;;;;5061917;28;20450;-62
2023/06/05 06:12:57;;;;;;;5.63;4.78;;;13.50;99.90;;;;;;5061978;28;20052;-63
2023/06/05 06:15:23;;;;;;;6.28;4.45;;;13.50;99.90;;;;;;5069340;28;20487;-63
2023/06/05 06:17:48;;;;;;;5.57;4.53;;;13.60;99.90;;;;;;5068649;28;20036;-63
2023/06/05 06:20:15;;;;;;;6.80;5.05;;;13.60;99.90;;;;;;5066929;28;20039;-65
2023/06/05 06:22:42;;;;;;;5.88;4.88;;;13.60;99.90;;;;;;5065649;28;20044;-63
2023/06/05 06:25:10;;;;;;;6.32;4.22;;;13.70;99.90;;;;;;5066191;28;20039;-64
2023/06/05 06:27:37;;;;;;;6.68;4.68;;;13.90;99.90;;;;;;5092104;28;20044;-62
2023/06/05 06:30:03;;;;;;;8.02;5.03;;;14.00;99.90;;;;;;5066758;28;20553;-62
2023/06/05 06:32:29;;;;;;;6.57;4.50;;;14.10;99.90;;;;;;5065532;28;20052;-63
2023/06/05 06:34:56;;;;;;;6.25;4.28;;;14.30;99.90;;;;;;5069408;28;20041;-61
2023/06/05 06:37:22;;;;;;;5.50;4.00;;;14.40;99.90;;;;;;5070172;28;20036;-65
2023/06/05 06:39:48;;;;;;;6.70;4.22;;;14.60;99.90;;;;;;5069937;28;20045;-62
2023/06/05 06:42:14;;;;;;;4.90;4.22;;;14.80;99.90;;;;;;5050993;28;20036;-63
2023/06/05 06:44:40;;;;;;;6.50;4.10;;;14.90;99.90;;;;;;5070085;28;20506;-61
2023/06/05 06:47:07;;;;;;;7.18;4.50;;;15.00;99.90;;;;;;5065670;28;20040;-65
2023/06/05 06:49:34;;;;;;;4.28;3.75;;;15.00;99.90;;;;;;5068974;28;20056;-61
2023/06/05 06:52:00;;;;;;;6.50;3.63;;;15.00;99.90;;;;;;5050361;28;20102;-63
2023/06/05 06:54:28;;;;;;;6.18;3.95;;;15.00;99.90;;;;;;5068636;28;20448;-64
2023/06/05 06:56:56;;;;;;;6.15;3.80;;;15.10;99.90;;;;;;5067669;28;20570;-63
2023/06/05 06:59:22;;;;;;;5.32;3.85;;;15.20;99.90;;;;;;5068097;28;20041;-62
2023/06/05 07:02:11;;;;;;;6.03;3.70;;;15.20;99.90;;;;;;5068724;28;20379;-63
2023/06/05 07:04:38;;;;;;;6.10;4.40;;;15.40;99.90;;;;;;5068028;28;20039;-62
2023/06/05 07:07:04;;;;;;;4.65;4.15;;;15.40;99.90;;;;;;5068094;28;20046;-61
2023/06/05 07:09:30;;;;;;;7.07;4.25;;;15.30;99.90;;;;;;5070425;28;20078;-63
2023/06/05 07:11:55;;;;;;;4.40;3.92;;;15.40;99.90;;;;;;5068731;28;20060;-65
2023/06/05 07:14:22;;;;;;;4.68;3.60;;;15.50;99.90;;;;;;5069797;28;20029;-62
2023/06/05 07:16:48;;;;;;;5.53;3.60;;;15.70;99.90;;;;;;5069169;28;20040;-62
2023/06/05 07:19:15;;;;;;;4.10;3.45;;;15.80;99.90;;;;;;5066470;28;20033;-61
2023/06/05 07:21:41;;;;;;;4.63;3.40;;;15.90;99.90;;;;;;5069559;28;20036;-63
2023/06/05 07:24:08;;;;;;;5.45;3.30;;;16.10;99.90;;;;;;5067897;28;20040;-63
2023/06/05 07:26:33;;;;;;;4.32;3.42;;;16.20;99.90;;;;;;5070100;28;20040;-63
2023/06/05 07:28:59;;;;;;;4.82;3.15;;;16.40;99.90;;;;;;5050007;28;20490;-64
2023/06/05 07:31:25;;;;;;;4.60;3.30;;;16.50;99.90;;;;;;5067347;28;20040;-62
2023/06/05 07:33:51;;;;;;;5.07;3.22;;;16.60;99.90;;;;;;5066752;28;20090;-63
2023/06/05 07:36:17;;;;;;;4.05;3.30;;;16.60;99.90;;;;;;5069420;28;20162;-63
2023/06/05 07:38:43;;;;;;;7.53;3.25;;;16.60;99.90;;;;;;5067652;28;20135;-63
2023/06/05 07:41:11;;;;;;;4.43;3.10;;;16.80;99.90;;;;;;5068524;28;20508;-61
2023/06/05 07:43:40;;;;;;;6.28;3.40;;;17.00;99.90;;;;;;5066251;28;20064;-63
2023/06/05 07:46:05;;;;;;;4.88;3.45;;;17.10;99.90;;;;;;5067200;28;20132;-63
2023/06/05 07:48:31;;;;;;;5.50;3.20;;;17.20;99.90;;;;;;5067767;28;20080;-63
2023/06/05 07:50:57;;;;;;;4.68;3.40;;;17.40;99.90;;;;;;5071431;28;20033;-62
2023/06/05 07:53:23;;;;;;;4.22;3.53;;;17.40;99.90;;;;;;5067703;28;20406;-63
2023/06/05 07:55:50;;;;;;;4.28;3.10;;;17.40;99.90;;;;;;5070539;28;20044;-62
2023/06/05 07:58:16;;;;;;;4.47;3.03;;;17.30;99.90;;;;;;5068688;28;20067;-60
2023/06/05 08:00:43;;;;;;;6.60;3.33;;;17.40;99.90;;;;;;5068788;28;20044;-63
2023/06/05 08:03:10;;;;;;;4.07;3.45;;;17.40;99.90;;;;;;5068363;28;20076;-61
2023/06/05 08:05:35;;;;;;;4.50;3.40;;;17.60;99.90;;;;;;5068731;28;20047;-60
2023/06/05 08:08:02;;;;;;;4.18;3.15;;;17.60;99.90;;;;;;5067658;28;20049;-61
2023/06/05 08:10:28;;;;;;;3.90;3.28;;;17.80;99.90;;;;;;5067356;28;20032;-62
2023/06/05 08:12:53;;;;;;;5.43;3.25;;;17.90;99.90;;;;;;5068042;28;20430;-62
2023/06/05 08:15:19;;;;;;;4.20;3.00;;;17.90;99.90;;;;;;5068556;28;20044;-61
2023/06/05 08:17:44;;;;;;;5.30;3.78;;;18.00;99.90;;;;;;5067223;28;20076;-62
2023/06/05 08:20:11;;;;;;;4.43;3.20;;;18.00;99.90;;;;;;5068565;28;20116;-63
2023/06/05 08:22:39;;;;;;;4.47;3.30;;;18.10;99.90;;;;;;5070197;28;20029;-63
2023/06/05 08:25:06;;;;;;;4.00;3.33;;;18.20;99.90;;;;;;5071153;28;20124;-60
2023/06/05 08:27:32;;;;;;;4.68;3.40;;;18.10;99.90;;;;;;5053237;28;20149;-61
2023/06/05 08:29:59;;;;;;;3.95;3.20;;;18.20;99.90;;;;;;5069992;28;20127;-65
2023/06/05 08:32:25;;;;;;;4.05;2.80;;;18.20;99.90;;;;;;5050832;28;20044;-62
2023/06/05 08:34:51;;;;;;;4.38;2.85;;;18.40;99.90;;;;;;5070519;28;20111;-61
2023/06/05 08:37:17;;;;;;;4.50;3.05;;;18.70;99.90;;;;;;5071348;28;20116;-60
2023/06/05 08:39:42;;;;;;;4.05;2.70;;;19.00;99.90;;;;;;5069504;28;20087;-64
2023/06/05 08:42:10;;;;;;;3.05;2.60;;;19.10;99.90;;;;;;5070435;28;20088;-63
2023/06/05 08:44:36;;;;;;;3.67;2.60;;;19.20;99.90;;;;;;5100778;28;20516;-62
2023/06/05 08:47:03;;;;;;;3.40;3.10;;;19.30;99.90;;;;;;5071711;28;20048;-63
2023/06/05 08:49:29;;;;;;;3.20;2.90;;;19.40;99.90;;;;;;5070841;28;20402;-63
2023/06/05 08:52:03;;;;;;;4.28;3.00;;;19.50;99.90;;;;;;5070783;28;20036;-62
2023/06/05 08:54:35;;;;;;;4.47;2.90;;;19.60;99.90;;;;;;5051769;28;20099;-62
2023/06/05 08:57:04;;;;;;;3.60;2.80;;;19.60;99.90;;;;;;5053608;28;20086;-61
2023/06/05 08:59:30;;;;;;;3.95;3.50;;;19.70;99.90;;;;;;5070674;28;20144;-62
2023/06/05 09:01:59;;;;;;;3.42;2.75;;;19.70;99.80;;;;;;5070873;28;20063;-61
2023/06/05 09:04:29;;;;;;;3.85;3.00;;;19.90;99.50;;;;;;5070246;28;20476;-61
2023/06/05 09:06:58;;;;;;;5.07;3.30;;;20.00;99.40;;;;;;5071742;28;20049;-61
2023/06/05 09:09:28;;;;;;;6.97;3.20;;;20.00;99.00;;;;;;5070217;28;20036;-63
2023/06/05 09:12:03;;;;;;;4.45;2.97;;;20.10;98.60;;;;;;5071832;28;20033;-63
2023/06/05 09:14:31;;;;;;;3.25;2.90;;;20.30;99.10;;;;;;5070000;28;20067;-61
2023/06/05 09:16:57;;;;;;;3.88;2.58;;;20.50;98.80;;;;;;5070189;28;20044;-62
2023/06/05 09:19:27;;;;;;;3.60;3.25;;;20.50;98.10;;;;;;5065792;28;20040;-62
2023/06/05 09:21:54;;;;;;;5.25;3.60;;;20.60;97.80;;;;;;5066421;28;20131;-61
2023/06/05 09:24:22;;;;;;;4.47;3.70;;;20.60;97.70;;;;;;5069386;28;20140;-63
2023/06/05 09:27:01;;;;;;;4.55;3.20;;;20.50;97.10;;;;;;5096772;28;20043;-63
2023/06/05 09:29:28;;;;;;;4.78;3.50;;;20.60;97.30;;;;;;5069897;28;20583;-63
2023/06/05 09:31:57;;;;;;;3.47;3.08;;;20.60;97.20;;;;;;5069596;28;20106;-62
2023/06/05 09:34:30;;;;;;;4.38;2.83;;;20.60;97.30;;;;;;5069669;28;20131;-62
2023/06/05 09:36:57;;;;;;;5.85;3.28;;;20.60;95.30;;;;;;5069835;28;20429;-62
2023/06/05 09:39:27;;;;;;;4.28;3.05;;;20.80;96.30;;;;;;5069386;28;20491;-63
2023/06/05 09:41:54;;;;;;;4.35;3.28;;;20.90;96.60;;;;;;5070700;28;20029;-63
2023/06/05 09:44:22;;;;;;;3.30;3.00;;;21.00;95.70;;;;;;5070459;28;20044;-63
2023/06/05 09:46:56;;;;;;;3.78;2.80;;;21.00;95.60;;;;;;5069568;28;20123;-65
2023/06/05 09:49:31;;;;;;;4.43;3.10;;;21.20;96.10;;;;;;5070118;28;20036;-63
2023/06/05 09:52:01;;;;;;;3.92;3.30;;;21.50;95.90;;;;;;5068361;28;20047;-64
2023/06/05 09:54:28;;;;;;;6.50;3.10;;;21.50;95.10;;;;;;5052602;28;20045;-65
2023/06/05 09:57:04;;;;;;;4.32;2.47;;;21.60;94.80;;;;;;5069905;28;20049;-63
2023/06/05 09:59:34;;;;;;;4.43;2.85;;;21.70;94.80;;;;;;5069776;28;20606;-63
2023/06/05 10:02:10;;;;;;;5.40;3.30;;;22.00;95.40;;;;;;5069530;28;20123;-62
2023/06/05 10:04:52;;;;;;;4.07;3.03;;;22.10;94.60;;;;;;5068582;28;20462;-63
2023/06/05 10:07:18;;;;;;;4.75;2.97;;;22.20;93.70;;;;;;5077151;28;20499;-63
2023/06/05 10:09:44;;;;;;;3.95;3.10;;;22.20;93.40;;;;;;5067961;28;20048;-62
2023/06/05 10:12:10;;;;;;;4.65;3.00;;;22.30;93.70;;;;;;5066983;28;20048;-63
2023/06/05 10:14:36;;;;;;;4.85;2.95;;;22.30;93.40;;;;;;5050762;28;20490;-64
2023/06/05 10:17:03;;;;;;;5.13;3.15;;;22.40;93.50;;;;;;5069426;28;20040;-62
2023/06/05 10:19:30;;;;;;;3.33;3.00;;;22.60;93.90;;;;;;5064938;28;20113;-62
2023/06/05 10:21:55;;;;;;;3.40;3.00;;;22.80;93.30;;;;;;5068493;28;20047;-63
2023/06/05 10:24:26;;;;;;;5.47;3.10;;;23.00;93.20;;;;;;5065396;28;20033;-64
2023/06/05 10:27:09;;;;;;;3.67;2.72;;;22.90;92.10;;;;;;5062854;28;20113;-62
2023/06/05 10:29:57;;;;;;;2.75;2.47;;;23.00;91.90;;;;;;5098253;28;20056;-63
2023/06/05 10:32:28;;;;;;;5.82;2.85;;;23.00;93.00;;;;;;5067336;28;20048;-63
2023/06/05 10:35:08;;;;;;;3.22;2.60;;;23.00;92.30;;;;;;5064495;28;20032;-63
2023/06/05 10:38:09;;;;;;;3.22;2.90;;;23.10;92.20;;;;;;5068394;28;20052;-65
2023/06/05 10:40:35;;;;;;;3.30;2.63;;;23.30;92.60;;;;;;5093220;28;20090;-63
2023/06/05 10:43:23;;;;;;;3.45;2.90;;;23.50;91.70;;;;;;5068795;28;20036;-63
2023/06/05 10:45:49;;;;;;;3.45;2.55;;;23.40;90.60;;;;;;5069088;28;20098;-62
2023/06/05 10:48:16;;;;;;;4.60;2.83;;;23.50;91.10;;;;;;5068760;28;20048;-62
2023/06/05 10:50:42;;;;;;;5.22;2.72;;;23.50;90.30;;;;;;5069301;28;20032;-63
2023/06/05 10:53:49;;;;;;;4.18;3.30;;;23.60;90.00;;;;;;5068309;28;20128;-64
2023/06/05 10:56:52;;;;;;;5.10;2.65;;;23.40;88.40;;;;;;5068965;28;20090;-66
2023/06/05 10:59:22;;;;;;;3.00;2.70;;;23.40;88.40;;;;;;5068487;28;20872;-63
2023/06/05 11:02:19;;;;;;;2.60;2.35;;;23.40;90.00;;;;;;5067851;28;20045;-64
2023/06/05 11:04:47;;;;;;;4.22;2.70;;;23.30;88.00;;;;;;5065229;28;20055;-60
2023/06/05 11:07:21;;;;;;;3.58;2.70;;;23.30;90.30;;;;;;5067182;28;20138;-62
2023/06/05 11:10:05;;;;;;;4.72;3.22;;;23.40;89.00;;;;;;5068940;28;20123;-62
2023/06/05 11:12:40;;;;;;;5.60;2.72;;;23.30;88.40;;;;;;5066193;28;20058;-63
2023/06/05 11:15:11;;;;;;;3.78;2.40;;;23.20;86.90;;;;;;5068648;28;20513;-63
2023/06/05 11:17:39;;;;;;;2.97;2.63;;;23.40;88.30;;;;;;5069781;28;20040;-64
2023/06/05 11:20:07;;;;;;;4.53;2.88;;;23.60;88.90;;;;;;5069073;28;20556;-64
2023/06/05 11:22:33;;;;;;;6.50;2.72;;;23.60;87.30;;;;;;5052177;28;20810;-63
2023/06/05 11:25:16;;;;;;;3.70;2.25;;;23.40;87.10;;;;;;5069668;28;20032;-66
2023/06/05 11:27:46;;;;;;;3.63;2.40;;;23.50;87.60;;;;;;5067901;28;20036;-61
2023/06/05 11:30:20;;;;;;;4.13;2.97;;;23.60;88.40;;;;;;5065009;28;20569;-65
2023/06/05 11:32:46;;;;;;;5.65;2.70;;;23.70;88.30;;;;;;5068194;28;20036;-63
2023/06/05 11:35:12;;;;;;;2.90;2.30;;;23.70;86.90;;;;;;5065960;28;20119;-62
2023/06/05 11:37:41;;;;;;;4.00;2.20;;;23.60;87.30;;;;;;5066944;28;20124;-63
2023/06/05 11:40:11;;;;;;;5.15;2.75;;;23.70;87.20;;;;;;5068015;28;20044;-64
2023/06/05 11:42:40;;;;;;;4.47;2.20;;;23.60;85.60;;;;;;5067526;28;20041;-63
2023/06/05 11:45:13;;;;;;;3.15;2.70;;;23.50;86.40;;;;;;5069985;28;20051;-63
2023/06/05 11:47:39;;;;;;;8.05;2.67;;;23.40;87.30;;;;;;5073023;28;20044;-63
2023/06/05 11:50:09;;;;;;;3.60;2.50;;;23.40;86.20;;;;;;5073600;28;20479;-66
2023/06/05 11:52:36;;;;;;;5.13;2.53;;;23.30;84.90;;;;;;5077023;28;20036;-62
2023/06/05 11:55:14;;;;;;;5.22;2.55;;;23.30;85.30;;;;;;5070778;28;20059;-61
2023/06/05 11:57:44;;;;;;;3.42;2.35;;;23.30;86.20;;;;;;5067518;28;20080;-63
2023/06/05 12:00:11;;;;;;;3.05;2.25;;;23.20;85.20;;;;;;5072593;28;20402;-62
2023/06/05 12:02:37;;;;;;;3.47;2.10;;;23.20;85.00;;;;;;5069968;28;20090;-63
2023/06/05 12:05:05;;;;;;;4.22;2.22;;;23.10;84.70;;;;;;5071499;28;20036;-63
2023/06/05 12:07:36;;;;;;;2.90;2.30;;;23.10;85.20;;;;;;5072541;28;20028;-63
2023/06/05 12:10:03;;;;;;;6.25;2.53;;;23.10;85.30;;;;;;5072101;28;20051;-63
2023/06/05 12:12:29;;;;;;;3.65;2.75;;;22.90;86.60;;;;;;5070573;28;20048;-64
2023/06/05 12:14:56;;;;;;;4.93;2.58;;;22.90;86.80;;;;;;5070963;28;20424;-62
2023/06/05 12:17:25;;;;;;;4.60;2.40;;;22.90;86.60;;;;;;5068767;28;20045;-63
2023/06/05 12:19:54;;;;;;;3.95;2.65;;;22.80;87.50;;;;;;5070553;28;20044;-62
2023/06/05 12:22:20;;;;;;;4.18;2.90;;;22.70;87.00;;;;;;5099486;28;20075;-62
2023/06/05 12:24:46;;;;;;;4.18;2.28;;;22.70;85.80;;;;;;5071993;28;20029;-63
2023/06/05 12:27:12;;;;;;;3.42;2.60;;;22.60;86.30;;;;;;5070563;28;20048;-61
2023/06/05 12:29:51;;;;;;;3.30;2.45;;;22.60;87.00;;;;;;5070267;28;20097;-63
2023/06/05 12:32:24;;;;;;;4.63;2.53;;;22.60;87.40;;;;;;5072609;28;20086;-62
2023/06/05 12:34:51;;;;;;;6.22;2.55;;;22.40;87.00;;;;;;5071327;28;20044;-61
2023/06/05 12:37:23;;;;;;;3.40;2.42;;;22.20;86.20;;;;;;5071804;28;20499;-61
2023/06/05 12:39:49;;;;;;;5.68;2.53;;;22.30;86.60;;;;;;5072071;28;20497;-61
2023/06/05 12:42:15;;;;;;;3.70;2.60;;;22.30;86.50;;;;;;5070790;28;20048;-63
2023/06/05 12:44:40;;;;;;;5.15;2.65;;;22.30;86.20;;;;;;5070487;28;20047;-61
2023/06/05 12:47:06;;;;;;;4.63;2.78;;;22.20;87.20;;;;;;5072406;28;20036;-62
2023/06/05 12:49:32;;;;;;;4.72;2.53;;;22.10;85.40;;;;;;5072143;28;20470;-61
2023/06/05 12:51:57;;;;;;;4.13;2.28;;;22.10;86.60;;;;;;5069216;28;20263;-62
2023/06/05 12:54:23;;;;;;;3.33;2.40;;;22.10;87.10;;;;;;5069849;28;20465;-61